Time;durP1;ratioP1;P1;durP2;ratioP2;P2;SDS_P1;SDS_P2;PMS_P1;PMS_P2;Temp;Humidity;BMP_temperature;BMP_pressure;BME280_temperature;BME280_humidity;BME280_pressure;Samples;Min_cycle;Max_cycle;Signal;HPM_P1;HPM_P2
2023/11/27 00:00:29;;;;;;;10.48;5.45;;;;;;;;;;10435346;28;20196;-67
2023/11/27 00:05:30;;;;;;;8.77;5.75;;;;;;;;;;10434496;28;20086;-67
2023/11/27 00:10:31;;;;;;;10.15;5.82;;;;;;;;;;10449044;28;20032;-66
2023/11/27 00:15:33;;;;;;;12.85;6.38;;;;;;;;;;10450705;28;20024;-67
2023/11/27 00:20:34;;;;;;;6.75;5.18;;;;;;;;;;10449236;28;20029;-67
2023/11/27 00:25:35;;;;;;;11.90;5.80;;;;;;;;;;10443751;28;20021;-63
2023/11/27 00:30:36;;;;;;;7.63;5.45;;;;;;;;;;10449222;28;20033;-63
2023/11/27 00:35:37;;;;;;;8.55;5.40;;;;;;;;;;10449718;28;20040;-63
2023/11/27 00:40:37;;;;;;;9.45;5.40;;;;;;;;;;10449192;28;20021;-62
2023/11/27 00:45:38;;;;;;;8.52;5.28;;;;;;;;;;10448589;28;20499;-63
2023/11/27 00:50:38;;;;;;;7.53;5.10;;;;;;;;;;10448822;28;20480;-63
2023/11/27 00:55:39;;;;;;;10.07;5.85;;;;;;;;;;10447475;28;20476;-63
2023/11/27 01:00:40;;;;;;;9.00;5.20;;;;;;;;;;10439246;28;20487;-63
2023/11/27 01:05:41;;;;;;;8.30;5.45;;;;;;;;;;10444625;28;20036;-63
2023/11/27 01:10:42;;;;;;;8.15;5.50;;;;;;;;;;10428074;28;20472;-63
2023/11/27 01:15:42;;;;;;;11.40;5.53;;;;;;;;;;10445381;28;20030;-62
2023/11/27 01:20:43;;;;;;;8.13;5.10;;;;;;;;;;10430479;28;20029;-63
2023/11/27 01:25:43;;;;;;;6.75;4.88;;;;;;;;;;10440176;28;20134;-63
2023/11/27 01:30:44;;;;;;;10.75;5.55;;;;;;;;;;10434879;28;20079;-63
2023/11/27 01:35:44;;;;;;;7.40;5.07;;;;;;;;;;10447082;28;20259;-63
2023/11/27 01:40:45;;;;;;;7.65;5.07;;;;;;;;;;10431939;28;20029;-63
2023/11/27 01:45:46;;;;;;;7.75;4.75;;;;;;;;;;10433488;28;20037;-63
2023/11/27 01:50:47;;;;;;;8.52;4.72;;;;;;;;;;10445810;28;20052;-64
2023/11/27 01:55:48;;;;;;;7.72;4.97;;;;;;;;;;10434520;28;20155;-63
2023/11/27 02:00:48;;;;;;;7.20;4.70;;;;;;;;;;10446214;28;20036;-63
2023/11/27 02:05:49;;;;;;;6.28;4.40;;;;;;;;;;10445769;28;20068;-62
2023/11/27 02:10:49;;;;;;;6.38;4.75;;;;;;;;;;10425927;28;20374;-63
2023/11/27 02:15:52;;;;;;;6.50;4.38;;;;;;;;;;10453670;28;20400;-64
2023/11/27 02:20:53;;;;;;;6.15;4.22;;;;;;;;;;10440671;28;20106;-64
2023/11/27 02:25:53;;;;;;;8.57;4.97;;;;;;;;;;10454144;28;20036;-64
2023/11/27 02:30:54;;;;;;;6.70;4.20;;;;;;;;;;10446768;28;20487;-64
2023/11/27 02:35:55;;;;;;;5.50;4.03;;;;;;;;;;10441204;28;20472;-64
2023/11/27 02:40:56;;;;;;;5.45;4.07;;;;;;;;;;10453330;28;20032;-64
2023/11/27 02:45:56;;;;;;;6.25;4.03;;;;;;;;;;10442178;28;20036;-64
2023/11/27 02:50:58;;;;;;;9.82;4.50;;;;;;;;;;10445248;28;20377;-66
2023/11/27 02:55:59;;;;;;;6.68;4.20;;;;;;;;;;10432604;28;20086;-62
2023/11/27 03:00:59;;;;;;;5.88;3.70;;;;;;;;;;10453017;28;20086;-62
2023/11/27 03:06:00;;;;;;;5.28;4.18;;;;;;;;;;10439516;28;20025;-62
2023/11/27 03:11:01;;;;;;;6.20;4.03;;;;;;;;;;10438942;28;20087;-63
2023/11/27 03:16:01;;;;;;;5.30;3.70;;;;;;;;;;10440027;28;20044;-64
2023/11/27 03:21:04;;;;;;;4.97;3.92;;;;;;;;;;10429355;28;20033;-64
2023/11/27 03:26:05;;;;;;;6.30;3.88;;;;;;;;;;10433911;28;20307;-62
2023/11/27 03:31:05;;;;;;;6.35;3.88;;;;;;;;;;10417696;28;20037;-66
2023/11/27 03:36:06;;;;;;;5.25;3.60;;;;;;;;;;10422198;28;20499;-63
2023/11/27 03:41:17;;;;;;;5.78;4.00;;;;;;;;;;10431000;28;20163;-65
2023/11/27 03:46:17;;;;;;;4.97;3.60;;;;;;;;;;10435376;28;20025;-63
2023/11/27 03:51:18;;;;;;;4.28;3.35;;;;;;;;;;10443375;28;20064;-63
2023/11/27 03:56:20;;;;;;;4.32;3.67;;;;;;;;;;10420050;28;20029;-63
2023/11/27 04:01:21;;;;;;;6.88;3.70;;;;;;;;;;10447204;28;20037;-63
2023/11/27 04:06:31;;;;;;;4.28;3.42;;;;;;;;;;10436404;28;20472;-64
2023/11/27 04:11:32;;;;;;;6.72;3.67;;;;;;;;;;10435777;28;20049;-64
2023/11/27 04:16:32;;;;;;;4.88;3.78;;;;;;;;;;10418962;28;20132;-65
2023/11/27 04:21:33;;;;;;;4.70;3.50;;;;;;;;;;10417854;28;20377;-65
2023/11/27 04:26:33;;;;;;;4.72;3.33;;;;;;;;;;10412308;28;20040;-63
2023/11/27 04:31:34;;;;;;;4.53;3.20;;;;;;;;;;10411666;28;20037;-63
2023/11/27 04:36:35;;;;;;;4.47;3.40;;;;;;;;;;10422206;28;20025;-63
2023/11/27 04:41:35;;;;;;;4.50;3.45;;;;;;;;;;10424882;28;20473;-63
2023/11/27 04:46:36;;;;;;;4.53;3.85;;;;;;;;;;10435424;28;20479;-63
2023/11/27 04:51:37;;;;;;;5.38;3.50;;;;;;;;;;10412805;28;20385;-64
2023/11/27 04:56:38;;;;;;;3.50;3.00;;;;;;;;;;10419885;28;20032;-63
2023/11/27 05:01:38;;;;;;;4.20;3.47;;;;;;;;;;10439652;28;20030;-64
2023/11/27 05:06:39;;;;;;;5.22;3.65;;;;;;;;;;10418185;28;20469;-63
2023/11/27 05:11:39;;;;;;;3.85;3.20;;;;;;;;;;10427556;28;20038;-63
2023/11/27 05:16:40;;;;;;;3.67;3.20;;;;;;;;;;10410401;28;20384;-64
2023/11/27 05:21:41;;;;;;;4.95;3.20;;;;;;;;;;10438384;28;20045;-65
2023/11/27 05:26:43;;;;;;;3.47;2.97;;;;;;;;;;10409521;28;20040;-63
2023/11/27 05:31:44;;;;;;;4.20;3.00;;;;;;;;;;10422847;28;20123;-63
2023/11/27 05:36:44;;;;;;;4.57;3.17;;;;;;;;;;10422577;28;20021;-64
2023/11/27 05:41:49;;;;;;;4.53;3.40;;;;;;;;;;10409040;28;20021;-63
2023/11/27 05:46:49;;;;;;;4.93;2.80;;;;;;;;;;10421718;28;20474;-63
2023/11/27 05:51:51;;;;;;;3.90;3.20;;;;;;;;;;10421487;28;20049;-64
2023/11/27 05:56:51;;;;;;;2.97;2.67;;;;;;;;;;10433659;28;20056;-63
2023/11/27 06:01:53;;;;;;;3.22;2.85;;;;;;;;;;10432021;28;20024;-66
2023/11/27 06:06:53;;;;;;;3.65;2.90;;;;;;;;;;10442958;28;20025;-66
2023/11/27 06:11:54;;;;;;;2.95;2.65;;;;;;;;;;10432321;28;20453;-67
2023/11/27 06:16:56;;;;;;;3.97;3.15;;;;;;;;;;10438170;28;20025;-67
2023/11/27 06:21:58;;;;;;;3.97;3.05;;;;;;;;;;10431197;28;20522;-66
2023/11/27 06:26:59;;;;;;;5.38;3.10;;;;;;;;;;10433977;28;20468;-64
2023/11/27 06:31:59;;;;;;;7.78;3.25;;;;;;;;;;10443769;28;20033;-64
2023/11/27 06:37:00;;;;;;;10.65;3.55;;;;;;;;;;10419264;28;20496;-64
2023/11/27 06:42:01;;;;;;;6.45;3.40;;;;;;;;;;10423729;28;20659;-65
2023/11/27 06:47:01;;;;;;;10.57;3.70;;;;;;;;;;10426267;28;20032;-64
2023/11/27 06:52:02;;;;;;;6.00;2.92;;;;;;;;;;10445356;28;20099;-64
2023/11/27 06:57:03;;;;;;;14.40;3.55;;;;;;;;;;10444937;28;20025;-72
2023/11/27 07:02:04;;;;;;;15.23;3.10;;;;;;;;;;10429788;28;20036;-71
2023/11/27 07:07:04;;;;;;;8.77;3.83;;;;;;;;;;10461518;28;20036;-72
2023/11/27 07:12:05;;;;;;;19.58;3.92;;;;;;;;;;10439070;28;20029;-71
2023/11/27 07:17:07;;;;;;;18.52;3.90;;;;;;;;;;10426697;28;20122;-71
2023/11/27 07:22:08;;;;;;;7.28;3.70;;;;;;;;;;10436413;28;20446;-70
2023/11/27 07:27:08;;;;;;;9.20;3.40;;;;;;;;;;10452377;28;20071;-72
2023/11/27 07:32:09;;;;;;;13.45;3.17;;;;;;;;;;10451505;28;20032;-72
2023/11/27 07:37:10;;;;;;;11.27;3.20;;;;;;;;;;10451332;28;20412;-71
2023/11/27 07:42:10;;;;;;;9.70;3.50;;;;;;;;;;10451608;28;20031;-71
2023/11/27 07:47:11;;;;;;;5.45;3.22;;;;;;;;;;10450953;28;20376;-70
2023/11/27 07:52:12;;;;;;;13.75;3.88;;;;;;;;;;10450454;28;20044;-71
2023/11/27 07:57:12;;;;;;;7.88;3.20;;;;;;;;;;10451379;28;20040;-72
2023/11/27 08:02:13;;;;;;;12.57;3.42;;;;;;;;;;10451499;28;20082;-70
2023/11/27 08:07:13;;;;;;;7.75;3.10;;;;;;;;;;10449793;28;20025;-70
2023/11/27 08:12:16;;;;;;;6.13;3.42;;;;;;;;;;10448742;28;20468;-72
2023/11/27 08:17:16;;;;;;;6.32;3.75;;;;;;;;;;10449588;28;20021;-69
2023/11/27 08:22:17;;;;;;;9.52;3.72;;;;;;;;;;10429086;28;20373;-71
2023/11/27 08:27:20;;;;;;;10.55;3.38;;;;;;;;;;10431222;28;20373;-72
2023/11/27 08:32:21;;;;;;;7.75;3.38;;;;;;;;;;10423627;28;20101;-70
2023/11/27 08:37:21;;;;;;;6.40;3.53;;;;;;;;;;10437564;28;20408;-71
2023/11/27 08:42:22;;;;;;;8.13;4.38;;;;;;;;;;10412123;28;20467;-72
2023/11/27 08:47:23;;;;;;;5.53;3.90;;;;;;;;;;10439968;28;20021;-72
2023/11/27 08:52:23;;;;;;;8.15;4.10;;;;;;;;;;10449107;28;20049;-72
2023/11/27 08:57:24;;;;;;;7.07;4.32;;;;;;;;;;10447858;28;20028;-69
2023/11/27 09:02:25;;;;;;;7.38;3.85;;;;;;;;;;10439708;28;20052;-72
2023/11/27 09:07:25;;;;;;;6.57;3.58;;;;;;;;;;10415665;28;20034;-69
2023/11/27 09:12:26;;;;;;;7.45;4.13;;;;;;;;;;10419231;28;20485;-72
2023/11/27 09:17:27;;;;;;;11.68;4.28;;;;;;;;;;10411782;28;20428;-71
2023/11/27 09:22:27;;;;;;;5.53;3.90;;;;;;;;;;10420065;28;20017;-71
2023/11/27 09:27:28;;;;;;;13.52;4.40;;;;;;;;;;10415706;28;20052;-71
2023/11/27 09:32:29;;;;;;;10.63;4.10;;;;;;;;;;10435606;28;20408;-71
2023/11/27 09:37:32;;;;;;;7.60;4.18;;;;;;;;;;10432487;28;20045;-71
2023/11/27 09:42:35;;;;;;;7.20;4.28;;;;;;;;;;10448598;28;20043;-71
2023/11/27 09:47:43;;;;;;;9.20;3.90;;;;;;;;;;10476834;28;20166;-72
2023/11/27 09:53:07;;;;;;;5.65;4.07;;;;;;;;;;10463407;28;20048;-71
2023/11/27 09:58:13;;;;;;;5.32;3.80;;;;;;;;;;10454351;28;20035;-71
2023/11/27 10:03:15;;;;;;;8.05;4.32;;;;;;;;;;10446629;28;20025;-70
2023/11/27 10:08:16;;;;;;;4.78;3.60;;;;;;;;;;10461839;28;20028;-71
2023/11/27 10:13:34;;;;;;;5.90;4.07;;;;;;;;;;10445061;28;20028;-71
2023/11/27 10:18:35;;;;;;;8.23;4.40;;;;;;;;;;10442396;28;20021;-69
2023/11/27 10:23:36;;;;;;;7.32;4.38;;;;;;;;;;10410841;28;20454;-70
2023/11/27 10:28:45;;;;;;;10.18;4.40;;;;;;;;;;10436255;28;20021;-70
2023/11/27 10:33:46;;;;;;;7.63;3.65;;;;;;;;;;10448918;28;20426;-70
2023/11/27 10:38:46;;;;;;;9.90;4.22;;;;;;;;;;10439986;28;20079;-70
2023/11/27 10:43:47;;;;;;;5.43;4.03;;;;;;;;;;10428224;28;20179;-71
2023/11/27 10:48:52;;;;;;;6.75;3.85;;;;;;;;;;10466308;28;20491;-71
2023/11/27 10:53:53;;;;;;;5.57;3.88;;;;;;;;;;10471712;28;20098;-71
2023/11/27 10:59:08;;;;;;;4.82;3.65;;;;;;;;;;10463695;28;20025;-70
2023/11/27 11:04:36;;;;;;;4.88;3.83;;;;;;;;;;10447636;28;20036;-71
2023/11/27 11:09:37;;;;;;;6.78;3.80;;;;;;;;;;10455616;28;20383;-71
2023/11/27 11:14:38;;;;;;;4.45;3.13;;;;;;;;;;10471441;28;20087;-71
2023/11/27 11:19:55;;;;;;;5.70;3.75;;;;;;;;;;10435988;28;20037;-71
2023/11/27 11:25:20;;;;;;;9.15;4.43;;;;;;;;;;10437507;28;20385;-69
2023/11/27 11:30:21;;;;;;;4.72;3.35;;;;;;;;;;10447935;28;20021;-69
2023/11/27 11:35:21;;;;;;;5.40;3.30;;;;;;;;;;10465084;28;20548;-69
2023/11/27 11:40:40;;;;;;;5.80;3.78;;;;;;;;;;10445622;28;20033;-68
2023/11/27 11:45:42;;;;;;;6.70;4.13;;;;;;;;;;10441978;28;20111;-69
2023/11/27 11:50:46;;;;;;;6.32;3.78;;;;;;;;;;10430397;28;20087;-70
2023/11/27 11:55:51;;;;;;;9.20;3.90;;;;;;;;;;10420540;28;20029;-70
2023/11/27 12:01:05;;;;;;;5.30;3.22;;;;;;;;;;10419146;28;20064;-69
2023/11/27 12:06:13;;;;;;;7.50;3.80;;;;;;;;;;10419577;28;20029;-70
2023/11/27 12:11:15;;;;;;;7.23;3.67;;;;;;;;;;10419918;28;20037;-70
2023/11/27 12:16:21;;;;;;;10.18;3.70;;;;;;;;;;10418541;28;20091;-69
2023/11/27 12:21:24;;;;;;;5.63;3.65;;;;;;;;;;10418416;28;20029;-69
2023/11/27 12:26:25;;;;;;;5.03;3.40;;;;;;;;;;10418271;28;20025;-69
2023/11/27 12:31:27;;;;;;;5.22;3.25;;;;;;;;;;10417867;28;20084;-72
2023/11/27 12:36:30;;;;;;;5.82;4.38;;;;;;;;;;10417769;28;20025;-72
2023/11/27 12:41:32;;;;;;;7.38;3.88;;;;;;;;;;10416424;28;20037;-72
2023/11/27 12:46:34;;;;;;;5.90;4.15;;;;;;;;;;10417350;28;20017;-72
2023/11/27 12:51:37;;;;;;;7.28;3.47;;;;;;;;;;10416886;28;20187;-72
2023/11/27 12:56:41;;;;;;;6.45;3.88;;;;;;;;;;10416371;28;20052;-72
2023/11/27 13:01:57;;;;;;;5.50;3.38;;;;;;;;;;10416545;28;20033;-69
2023/11/27 13:07:05;;;;;;;6.20;4.47;;;;;;;;;;10417222;28;20026;-72
2023/11/27 13:12:25;;;;;;;5.10;3.53;;;;;;;;;;10416787;28;20080;-72
2023/11/27 13:17:27;;;;;;;5.57;3.70;;;;;;;;;;10416783;28;20080;-72
2023/11/27 13:22:31;;;;;;;5.15;3.45;;;;;;;;;;10415828;28;20022;-72
2023/11/27 13:27:33;;;;;;;6.85;3.42;;;;;;;;;;10431746;28;20033;-72
2023/11/27 13:32:35;;;;;;;4.97;3.38;;;;;;;;;;10415617;28;20033;-69
2023/11/27 13:37:38;;;;;;;5.40;3.63;;;;;;;;;;10415715;28;20083;-69
2023/11/27 13:42:39;;;;;;;13.73;3.88;;;;;;;;;;10416005;28;20031;-69
2023/11/27 13:47:41;;;;;;;7.05;3.70;;;;;;;;;;10417106;28;20026;-71
2023/11/27 13:52:42;;;;;;;5.00;3.03;;;;;;;;;;10414917;28;20079;-70
2023/11/27 13:57:48;;;;;;;4.25;3.08;;;;;;;;;;10415112;28;20354;-70
2023/11/27 14:02:50;;;;;;;3.33;2.95;;;;;;;;;;10414836;28;20037;-71
2023/11/27 14:07:52;;;;;;;6.05;3.00;;;;;;;;;;10418006;28;20053;-72
2023/11/27 14:13:08;;;;;;;4.53;3.15;;;;;;;;;;10423851;28;20040;-70
2023/11/27 14:23:25;;;;;;;6.70;3.22;;;;;;;;;;10422953;28;20021;-72
2023/11/27 14:28:57;;;;;;;5.32;3.25;;;;;;;;;;10422750;28;20086;-72
2023/11/27 14:33:54;;;;;;;5.00;3.08;;;;;;;;;;10422381;28;20091;-71
2023/11/27 14:38:58;;;;;;;7.53;3.20;;;;;;;;;;10422391;28;20033;-72
2023/11/27 14:43:59;;;;;;;3.35;3.05;;;;;;;;;;10422163;28;20029;-70
2023/11/27 14:49:00;;;;;;;6.07;3.55;;;;;;;;;;10423185;28;20334;-71
2023/11/27 14:54:02;;;;;;;3.17;2.70;;;;;;;;;;10421627;28;20092;-68
2023/11/27 14:59:07;;;;;;;3.53;2.78;;;;;;;;;;10421573;28;20029;-72
2023/11/27 15:04:10;;;;;;;6.93;2.92;;;;;;;;;;10421351;28;20373;-71
2023/11/27 15:09:21;;;;;;;5.43;3.00;;;;;;;;;;10421257;28;20051;-72
2023/11/27 15:14:23;;;;;;;7.00;3.53;;;;;;;;;;10420808;28;20044;-72
2023/11/27 15:19:25;;;;;;;4.13;2.67;;;;;;;;;;10420028;28;20026;-71
2023/11/27 15:24:29;;;;;;;3.78;3.03;;;;;;;;;;10420638;28;20038;-72
2023/11/27 15:29:32;;;;;;;4.05;3.03;;;;;;;;;;10420295;28;20037;-72
2023/11/27 15:34:34;;;;;;;3.55;2.80;;;;;;;;;;10420768;28;20033;-72
2023/11/27 15:39:35;;;;;;;6.68;2.72;;;;;;;;;;10419996;28;20179;-72
2023/11/27 15:44:37;;;;;;;4.60;3.25;;;;;;;;;;10419832;28;20026;-72
2023/11/27 15:49:40;;;;;;;4.15;3.00;;;;;;;;;;10419931;28;20052;-72
2023/11/27 15:54:41;;;;;;;4.82;3.28;;;;;;;;;;10420028;28;20128;-72
2023/11/27 15:59:43;;;;;;;3.80;2.92;;;;;;;;;;10420989;28;20033;-72
2023/11/27 16:04:44;;;;;;;3.85;3.03;;;;;;;;;;10419631;28;20021;-70
2023/11/27 16:09:47;;;;;;;4.75;3.00;;;;;;;;;;10418930;28;20037;-72
2023/11/27 16:14:48;;;;;;;6.90;3.28;;;;;;;;;;10419676;28;20037;-73
2023/11/27 16:19:51;;;;;;;5.30;3.17;;;;;;;;;;10418773;28;20029;-72
2023/11/27 16:24:52;;;;;;;6.70;3.88;;;;;;;;;;10418385;28;20124;-71
2023/11/27 16:29:54;;;;;;;4.53;3.10;;;;;;;;;;10418288;28;20034;-72
2023/11/27 16:34:56;;;;;;;6.30;3.35;;;;;;;;;;10418816;28;20030;-72
2023/11/27 16:39:58;;;;;;;5.38;3.28;;;;;;;;;;10416417;28;20056;-72
2023/11/27 16:44:59;;;;;;;6.55;3.08;;;;;;;;;;10417443;28;20025;-72
2023/11/27 16:50:00;;;;;;;5.25;3.00;;;;;;;;;;10416940;28;20134;-72
2023/11/27 16:55:05;;;;;;;10.43;3.22;;;;;;;;;;10417126;28;20041;-72
2023/11/27 17:00:08;;;;;;;5.60;3.20;;;;;;;;;;10416911;28;20079;-72
2023/11/27 17:05:10;;;;;;;4.22;3.13;;;;;;;;;;10417359;28;20041;-72
2023/11/27 17:10:21;;;;;;;5.88;3.40;;;;;;;;;;10416521;28;20049;-72
2023/11/27 17:15:22;;;;;;;4.18;3.08;;;;;;;;;;10416982;28;20063;-71
2023/11/27 17:20:25;;;;;;;7.32;3.13;;;;;;;;;;10416075;28;20030;-74
2023/11/27 17:25:27;;;;;;;5.50;2.92;;;;;;;;;;10415915;28;20109;-74
2023/11/27 17:30:29;;;;;;;5.47;3.28;;;;;;;;;;10416169;28;20087;-73
2023/11/27 17:35:32;;;;;;;4.88;3.30;;;;;;;;;;10415790;28;20439;-74
2023/11/27 17:40:34;;;;;;;3.58;2.90;;;;;;;;;;10415535;28;20477;-74
2023/11/27 17:45:41;;;;;;;9.20;3.38;;;;;;;;;;10415223;28;20029;-74
2023/11/27 17:50:43;;;;;;;11.70;3.75;;;;;;;;;;10416445;28;20053;-63
2023/11/27 17:55:46;;;;;;;6.65;3.83;;;;;;;;;;10415112;28;20401;-64
2023/11/27 18:00:52;;;;;;;8.30;3.45;;;;;;;;;;10415041;28;20037;-63
2023/11/27 18:05:54;;;;;;;6.35;3.72;;;;;;;;;;10415056;28;20033;-64
2023/11/27 18:10:58;;;;;;;8.23;4.00;;;;;;;;;;10415588;28;20025;-64
2023/11/27 18:16:00;;;;;;;7.22;4.15;;;;;;;;;;10414802;28;20144;-63
2023/11/27 18:21:01;;;;;;;7.60;4.07;;;;;;;;;;10414715;28;20137;-63
2023/11/27 18:26:04;;;;;;;6.20;3.85;;;;;;;;;;10415856;28;20112;-65
2023/11/27 18:31:06;;;;;;;6.05;3.80;;;;;;;;;;10415021;28;20064;-64
2023/11/27 18:36:08;;;;;;;7.22;4.22;;;;;;;;;;10414558;28;20048;-64
2023/11/27 18:41:09;;;;;;;4.90;3.78;;;;;;;;;;10414350;28;20079;-64
2023/11/27 18:46:13;;;;;;;10.77;4.43;;;;;;;;;;10414503;28;20029;-64
2023/11/27 18:51:26;;;;;;;12.07;4.82;;;;;;;;;;10414032;28;20408;-63
2023/11/27 18:56:28;;;;;;;8.27;4.55;;;;;;;;;;10421051;28;20075;-63
2023/11/27 19:01:30;;;;;;;6.95;3.70;;;;;;;;;;10421582;28;20465;-63
2023/11/27 19:06:32;;;;;;;8.77;4.85;;;;;;;;;;10421619;28;20041;-63
2023/11/27 19:11:34;;;;;;;8.02;4.50;;;;;;;;;;10421685;28;20099;-63
2023/11/27 19:16:35;;;;;;;8.38;4.82;;;;;;;;;;10421638;28;20112;-64
2023/11/27 19:21:37;;;;;;;8.48;4.47;;;;;;;;;;10421352;28;20048;-64
2023/11/27 19:26:39;;;;;;;10.30;3.97;;;;;;;;;;10420662;28;20504;-64
2023/11/27 19:31:41;;;;;;;5.50;3.63;;;;;;;;;;10420931;28;20075;-63
2023/11/27 19:36:42;;;;;;;7.97;4.15;;;;;;;;;;10420257;28;20461;-63
2023/11/27 19:41:51;;;;;;;14.65;5.97;;;;;;;;;;10419921;28;20101;-63
2023/11/27 19:46:54;;;;;;;20.88;5.80;;;;;;;;;;10420413;28;20346;-63
2023/11/27 19:51:56;;;;;;;17.10;5.38;;;;;;;;;;10434957;28;20053;-63
2023/11/27 19:56:58;;;;;;;12.27;5.15;;;;;;;;;;10419564;28;20033;-63
2023/11/27 20:02:00;;;;;;;16.95;5.72;;;;;;;;;;10419279;28;20021;-63
2023/11/27 20:07:01;;;;;;;12.07;5.45;;;;;;;;;;10418924;28;20033;-63
2023/11/27 20:12:03;;;;;;;12.93;5.65;;;;;;;;;;10418810;28;20412;-63
2023/11/27 20:17:05;;;;;;;12.48;5.70;;;;;;;;;;10418616;28;20478;-64
2023/11/27 20:22:07;;;;;;;9.43;5.32;;;;;;;;;;10418439;28;20079;-63
2023/11/27 20:27:09;;;;;;;10.38;5.18;;;;;;;;;;10418168;28;20033;-63
2023/11/27 20:32:13;;;;;;;10.43;4.82;;;;;;;;;;10417969;28;20083;-63
2023/11/27 20:37:15;;;;;;;13.73;5.53;;;;;;;;;;10417869;28;20033;-63
2023/11/27 20:42:17;;;;;;;9.95;6.05;;;;;;;;;;10418207;28;20040;-63
2023/11/27 20:47:19;;;;;;;11.95;6.70;;;;;;;;;;10417590;28;20021;-64
2023/11/27 20:52:21;;;;;;;12.63;5.70;;;;;;;;;;10416921;28;20053;-63
2023/11/27 20:57:23;;;;;;;15.05;5.90;;;;;;;;;;10417083;28;20026;-64
2023/11/27 21:02:25;;;;;;;9.85;5.80;;;;;;;;;;10416597;28;20029;-63
2023/11/27 21:07:27;;;;;;;10.90;6.25;;;;;;;;;;10417272;28;20457;-64
2023/11/27 21:12:29;;;;;;;10.02;5.28;;;;;;;;;;10416213;28;20033;-64
2023/11/27 21:17:31;;;;;;;10.52;5.60;;;;;;;;;;10415819;28;20022;-65
2023/11/27 21:22:32;;;;;;;12.18;5.32;;;;;;;;;;10416088;28;20390;-64
2023/11/27 21:27:34;;;;;;;9.05;5.63;;;;;;;;;;10415975;28;20029;-64
2023/11/27 21:32:35;;;;;;;13.13;6.72;;;;;;;;;;10416832;28;20033;-64
2023/11/27 21:37:37;;;;;;;14.65;5.90;;;;;;;;;;10415698;28;20112;-65
2023/11/27 21:42:39;;;;;;;11.85;6.97;;;;;;;;;;10416066;28;20049;-65
2023/11/27 21:47:40;;;;;;;31.25;9.57;;;;;;;;;;10416117;28;20080;-64
2023/11/27 21:52:42;;;;;;;15.68;7.65;;;;;;;;;;10414914;28;20045;-64
2023/11/27 21:57:43;;;;;;;17.20;7.93;;;;;;;;;;10415154;28;20029;-66
2023/11/27 22:02:45;;;;;;;18.08;7.72;;;;;;;;;;10415098;28;20109;-66
2023/11/27 22:07:49;;;;;;;18.30;8.07;;;;;;;;;;10415619;28;20053;-64
2023/11/27 22:12:50;;;;;;;23.58;7.25;;;;;;;;;;10414727;28;20041;-65
2023/11/27 22:17:52;;;;;;;23.70;7.82;;;;;;;;;;10414837;28;20018;-64
2023/11/27 22:22:54;;;;;;;16.25;8.00;;;;;;;;;;10414697;28;20429;-64
2023/11/27 22:27:56;;;;;;;13.60;7.78;;;;;;;;;;10415998;28;20036;-64
2023/11/27 22:32:58;;;;;;;18.90;7.25;;;;;;;;;;10423122;28;20036;-60
2023/11/27 22:38:00;;;;;;;12.65;7.18;;;;;;;;;;10438521;28;20025;-61
2023/11/27 22:43:02;;;;;;;10.00;6.28;;;;;;;;;;10422313;28;20457;-61
2023/11/27 22:48:04;;;;;;;14.00;6.80;;;;;;;;;;10422171;28;20057;-61
2023/11/27 22:53:06;;;;;;;13.80;6.72;;;;;;;;;;10421731;28;20111;-63
2023/11/27 22:58:08;;;;;;;10.93;7.53;;;;;;;;;;10421833;28;20025;-63
2023/11/27 23:03:09;;;;;;;14.63;6.88;;;;;;;;;;10421507;28;20057;-62
2023/11/27 23:08:11;;;;;;;13.18;6.72;;;;;;;;;;10421442;28;20465;-62
2023/11/27 23:13:12;;;;;;;10.65;6.13;;;;;;;;;;10421033;28;20054;-62
2023/11/27 23:18:15;;;;;;;15.52;6.60;;;;;;;;;;10420948;28;20033;-62
2023/11/27 23:23:17;;;;;;;11.13;6.03;;;;;;;;;;10420768;28;20025;-62
2023/11/27 23:28:18;;;;;;;12.38;7.00;;;;;;;;;;10420635;28;20029;-62
2023/11/27 23:33:20;;;;;;;13.63;6.15;;;;;;;;;;10421758;28;20037;-62
2023/11/27 23:38:22;;;;;;;11.60;5.95;;;;;;;;;;10420316;28;20025;-63
2023/11/27 23:43:24;;;;;;;9.50;6.10;;;;;;;;;;10419405;28;20522;-64
2023/11/27 23:48:27;;;;;;;10.57;6.03;;;;;;;;;;10419891;28;20499;-64
2023/11/27 23:53:28;;;;;;;11.07;5.90;;;;;;;;;;10419425;28;20050;-64
2023/11/27 23:58:35;;;;;;;12.48;5.95;;;;;;;;;;10419547;28;20029;-63
